sensor_id;sensor_type;location;lat;lon;timestamp;temperature;humidity
17703;DHT22;8970;48.104;-1.680;2022-08-19T00:00:22;20.40;99.90
17703;DHT22;8970;48.104;-1.680;2022-08-19T00:01:07;20.40;99.90
17703;DHT22;8970;48.104;-1.680;2022-08-19T00:01:53;20.30;99.90
17703;DHT22;8970;48.104;-1.680;2022-08-19T00:02:32;20.40;99.90
17703;DHT22;8970;48.104;-1.680;2022-08-19T00:03:57;20.40;99.90
17703;DHT22;8970;48.104;-1.680;2022-08-19T00:05:22;20.30;99.90
17703;DHT22;8970;48.104;-1.680;2022-08-19T00:06:05;20.30;99.90
17703;DHT22;8970;48.104;-1.680;2022-08-19T00:06:56;20.30;99.90
17703;DHT22;8970;48.104;-1.680;2022-08-19T00:07:33;20.30;99.90
17703;DHT22;8970;48.104;-1.680;2022-08-19T00:08:16;20.30;99.90
17703;DHT22;8970;48.104;-1.680;2022-08-19T00:09:00;20.30;99.90
17703;DHT22;8970;48.104;-1.680;2022-08-19T00:09:41;20.30;99.90
17703;DHT22;8970;48.104;-1.680;2022-08-19T00:10:24;20.30;99.90
17703;DHT22;8970;48.104;-1.680;2022-08-19T00:11:04;20.30;99.90
17703;DHT22;8970;48.104;-1.680;2022-08-19T00:11:44;20.40;99.90
17703;DHT22;8970;48.104;-1.680;2022-08-19T00:12:23;20.40;99.90
17703;DHT22;8970;48.104;-1.680;2022-08-19T00:13:48;20.40;99.90
17703;DHT22;8970;48.104;-1.680;2022-08-19T00:14:26;20.40;99.90
17703;DHT22;8970;48.104;-1.680;2022-08-19T00:15:09;20.40;99.90
17703;DHT22;8970;48.104;-1.680;2022-08-19T00:15:50;20.40;99.90
17703;DHT22;8970;48.104;-1.680;2022-08-19T00:17:12;20.40;99.90
17703;DHT22;8970;48.104;-1.680;2022-08-19T00:17:49;20.40;99.90
17703;DHT22;8970;48.104;-1.680;2022-08-19T00:19:15;20.20;99.90
17703;DHT22;8970;48.104;-1.680;2022-08-19T00:19:52;20.20;99.90
17703;DHT22;8970;48.104;-1.680;2022-08-19T00:20:29;20.20;99.90
17703;DHT22;8970;48.104;-1.680;2022-08-19T00:21:06;20.20;99.90
17703;DHT22;8970;48.104;-1.680;2022-08-19T00:21:46;20.10;99.90
17703;DHT22;8970;48.104;-1.680;2022-08-19T00:22:23;20.10;99.90
17703;DHT22;8970;48.104;-1.680;2022-08-19T00:22:59;20.10;99.90
17703;DHT22;8970;48.104;-1.680;2022-08-19T00:23:36;20.00;99.90
17703;DHT22;8970;48.104;-1.680;2022-08-19T00:24:14;20.00;99.90
17703;DHT22;8970;48.104;-1.680;2022-08-19T00:25:39;20.00;99.90
17703;DHT22;8970;48.104;-1.680;2022-08-19T00:26:18;20.00;99.90
17703;DHT22;8970;48.104;-1.680;2022-08-19T00:26:56;20.00;99.90
17703;DHT22;8970;48.104;-1.680;2022-08-19T00:27:34;20.10;99.90
17703;DHT22;8970;48.104;-1.680;2022-08-19T00:28:11;20.10;99.90
17703;DHT22;8970;48.104;-1.680;2022-08-19T00:28:48;20.20;99.90
17703;DHT22;8970;48.104;-1.680;2022-08-19T00:30:10;20.20;99.90
17703;DHT22;8970;48.104;-1.680;2022-08-19T00:30:50;20.20;99.90
17703;DHT22;8970;48.104;-1.680;2022-08-19T00:31:29;20.10;99.90
17703;DHT22;8970;48.104;-1.680;2022-08-19T00:32:09;20.10;99.90
17703;DHT22;8970;48.104;-1.680;2022-08-19T00:32:45;20.10;99.90
17703;DHT22;8970;48.104;-1.680;2022-08-19T00:33:22;20.10;99.90
17703;DHT22;8970;48.104;-1.680;2022-08-19T00:34:00;20.20;99.90
17703;DHT22;8970;48.104;-1.680;2022-08-19T00:34:39;20.20;99.90
17703;DHT22;8970;48.104;-1.680;2022-08-19T00:35:22;20.10;99.90
17703;DHT22;8970;48.104;-1.680;2022-08-19T00:36:06;20.20;99.90
17703;DHT22;8970;48.104;-1.680;2022-08-19T00:36:44;20.20;99.90
17703;DHT22;8970;48.104;-1.680;2022-08-19T00:38:09;20.10;99.90
17703;DHT22;8970;48.104;-1.680;2022-08-19T00:38:49;20.10;99.90
17703;DHT22;8970;48.104;-1.680;2022-08-19T00:39:28;20.10;99.90
17703;DHT22;8970;48.104;-1.680;2022-08-19T00:40:07;20.10;99.90
17703;DHT22;8970;48.104;-1.680;2022-08-19T00:40:44;20.10;99.90
17703;DHT22;8970;48.104;-1.680;2022-08-19T00:41:23;20.10;99.90
17703;DHT22;8970;48.104;-1.680;2022-08-19T00:42:53;20.20;99.90
17703;DHT22;8970;48.104;-1.680;2022-08-19T00:43:30;20.20;99.90
17703;DHT22;8970;48.104;-1.680;2022-08-19T00:44:11;20.20;99.90
17703;DHT22;8970;48.104;-1.680;2022-08-19T00:44:48;20.10;99.90
17703;DHT22;8970;48.104;-1.680;2022-08-19T00:45:28;20.10;99.90
17703;DHT22;8970;48.104;-1.680;2022-08-19T00:46:07;20.10;99.90
17703;DHT22;8970;48.104;-1.680;2022-08-19T00:47:32;20.10;99.90
17703;DHT22;8970;48.104;-1.680;2022-08-19T00:48:09;20.00;99.90
17703;DHT22;8970;48.104;-1.680;2022-08-19T00:49:37;20.10;99.90
17703;DHT22;8970;48.104;-1.680;2022-08-19T00:50:20;20.10;99.90
17703;DHT22;8970;48.104;-1.680;2022-08-19T00:50:58;20.10;99.90
17703;DHT22;8970;48.104;-1.680;2022-08-19T00:51:36;20.10;99.90
17703;DHT22;8970;48.104;-1.680;2022-08-19T00:52:15;20.10;99.90
17703;DHT22;8970;48.104;-1.680;2022-08-19T00:52:53;20.10;99.90
17703;DHT22;8970;48.104;-1.680;2022-08-19T00:53:32;20.10;99.90
17703;DHT22;8970;48.104;-1.680;2022-08-19T00:54:10;20.10;99.90
17703;DHT22;8970;48.104;-1.680;2022-08-19T00:54:53;20.10;99.90
17703;DHT22;8970;48.104;-1.680;2022-08-19T00:55:31;20.10;99.90
17703;DHT22;8970;48.104;-1.680;2022-08-19T00:56:08;20.20;99.90
17703;DHT22;8970;48.104;-1.680;2022-08-19T00:56:47;20.20;99.90
17703;DHT22;8970;48.104;-1.680;2022-08-19T00:58:19;20.10;99.90
17703;DHT22;8970;48.104;-1.680;2022-08-19T00:59:04;20.10;99.90
17703;DHT22;8970;48.104;-1.680;2022-08-19T00:59:46;20.00;99.90
17703;DHT22;8970;48.104;-1.680;2022-08-19T01:00:30;20.00;99.90
17703;DHT22;8970;48.104;-1.680;2022-08-19T01:01:56;20.00;99.90
17703;DHT22;8970;48.104;-1.680;2022-08-19T01:02:43;20.00;99.90
17703;DHT22;8970;48.104;-1.680;2022-08-19T01:03:25;20.00;99.90
17703;DHT22;8970;48.104;-1.680;2022-08-19T01:04:02;20.00;99.90
17703;DHT22;8970;48.104;-1.680;2022-08-19T01:04:42;19.90;99.90
17703;DHT22;8970;48.104;-1.680;2022-08-19T01:05:23;19.90;99.90
17703;DHT22;8970;48.104;-1.680;2022-08-19T01:06:03;19.90;99.90
17703;DHT22;8970;48.104;-1.680;2022-08-19T01:06:40;19.90;99.90
17703;DHT22;8970;48.104;-1.680;2022-08-19T01:07:19;19.90;99.90
17703;DHT22;8970;48.104;-1.680;2022-08-19T01:08:00;19.90;99.90
17703;DHT22;8970;48.104;-1.680;2022-08-19T01:08:38;19.90;99.90
17703;DHT22;8970;48.104;-1.680;2022-08-19T01:09:16;20.00;99.90
17703;DHT22;8970;48.104;-1.680;2022-08-19T01:09:58;20.00;99.90
17703;DHT22;8970;48.104;-1.680;2022-08-19T01:11:28;20.00;99.90
17703;DHT22;8970;48.104;-1.680;2022-08-19T01:12:08;20.10;99.90
17703;DHT22;8970;48.104;-1.680;2022-08-19T01:12:46;20.10;99.90
17703;DHT22;8970;48.104;-1.680;2022-08-19T01:14:22;20.10;99.90
17703;DHT22;8970;48.104;-1.680;2022-08-19T01:15:00;20.10;99.90
17703;DHT22;8970;48.104;-1.680;2022-08-19T01:15:40;20.10;99.90
17703;DHT22;8970;48.104;-1.680;2022-08-19T01:17:08;20.20;99.90
17703;DHT22;8970;48.104;-1.680;2022-08-19T01:17:46;20.20;99.90
17703;DHT22;8970;48.104;-1.680;2022-08-19T01:18:26;20.20;99.90
17703;DHT22;8970;48.104;-1.680;2022-08-19T01:19:07;20.20;99.90
17703;DHT22;8970;48.104;-1.680;2022-08-19T01:19:49;20.20;99.90
17703;DHT22;8970;48.104;-1.680;2022-08-19T01:20:26;20.20;99.90
17703;DHT22;8970;48.104;-1.680;2022-08-19T01:21:55;20.20;99.90
17703;DHT22;8970;48.104;-1.680;2022-08-19T01:22:32;20.30;99.90
17703;DHT22;8970;48.104;-1.680;2022-08-19T01:23:11;20.30;99.90
17703;DHT22;8970;48.104;-1.680;2022-08-19T01:23:48;20.20;99.90
17703;DHT22;8970;48.104;-1.680;2022-08-19T01:25:09;20.20;99.90
17703;DHT22;8970;48.104;-1.680;2022-08-19T01:25:49;20.20;99.90
17703;DHT22;8970;48.104;-1.680;2022-08-19T01:26:28;20.20;99.90
17703;DHT22;8970;48.104;-1.680;2022-08-19T01:27:07;20.20;99.90
17703;DHT22;8970;48.104;-1.680;2022-08-19T01:28:32;20.20;99.90
17703;DHT22;8970;48.104;-1.680;2022-08-19T01:29:10;20.20;99.90
17703;DHT22;8970;48.104;-1.680;2022-08-19T01:29:46;20.20;99.90
17703;DHT22;8970;48.104;-1.680;2022-08-19T01:30:26;20.30;99.90
17703;DHT22;8970;48.104;-1.680;2022-08-19T01:31:03;20.30;99.90
17703;DHT22;8970;48.104;-1.680;2022-08-19T01:31:40;20.30;99.90
17703;DHT22;8970;48.104;-1.680;2022-08-19T01:32:17;20.20;99.90
17703;DHT22;8970;48.104;-1.680;2022-08-19T01:32:56;20.20;99.90
17703;DHT22;8970;48.104;-1.680;2022-08-19T01:34:17;20.20;99.90
17703;DHT22;8970;48.104;-1.680;2022-08-19T01:34:54;20.20;99.90
17703;DHT22;8970;48.104;-1.680;2022-08-19T01:35:31;20.20;99.90
17703;DHT22;8970;48.104;-1.680;2022-08-19T01:36:12;20.20;99.90
17703;DHT22;8970;48.104;-1.680;2022-08-19T01:36:50;20.10;99.90
17703;DHT22;8970;48.104;-1.680;2022-08-19T01:37:26;20.20;99.90
17703;DHT22;8970;48.104;-1.680;2022-08-19T01:38:05;20.20;99.90
17703;DHT22;8970;48.104;-1.680;2022-08-19T01:38:43;20.20;99.90
17703;DHT22;8970;48.104;-1.680;2022-08-19T01:40:11;20.10;99.90
17703;DHT22;8970;48.104;-1.680;2022-08-19T01:40:47;20.10;99.90
17703;DHT22;8970;48.104;-1.680;2022-08-19T01:41:25;20.00;99.90
17703;DHT22;8970;48.104;-1.680;2022-08-19T01:42:01;20.00;99.90
17703;DHT22;8970;48.104;-1.680;2022-08-19T01:42:40;19.90;99.90
17703;DHT22;8970;48.104;-1.680;2022-08-19T01:43:17;19.90;99.90
17703;DHT22;8970;48.104;-1.680;2022-08-19T01:43:54;19.90;99.90
17703;DHT22;8970;48.104;-1.680;2022-08-19T01:44:31;19.90;99.90
17703;DHT22;8970;48.104;-1.680;2022-08-19T01:45:11;19.90;99.90
17703;DHT22;8970;48.104;-1.680;2022-08-19T01:45:47;19.90;99.90
17703;DHT22;8970;48.104;-1.680;2022-08-19T01:47:08;20.00;99.90
17703;DHT22;8970;48.104;-1.680;2022-08-19T01:47:45;20.00;99.90
17703;DHT22;8970;48.104;-1.680;2022-08-19T01:48:21;20.00;99.90
17703;DHT22;8970;48.104;-1.680;2022-08-19T01:49:44;20.00;99.90
17703;DHT22;8970;48.104;-1.680;2022-08-19T01:50:22;20.00;99.90
17703;DHT22;8970;48.104;-1.680;2022-08-19T01:51:00;20.00;99.90
17703;DHT22;8970;48.104;-1.680;2022-08-19T01:51:38;20.00;99.90
17703;DHT22;8970;48.104;-1.680;2022-08-19T01:52:14;20.00;99.90
17703;DHT22;8970;48.104;-1.680;2022-08-19T01:52:53;19.90;99.90
17703;DHT22;8970;48.104;-1.680;2022-08-19T01:53:30;20.00;99.90
17703;DHT22;8970;48.104;-1.680;2022-08-19T01:54:07;19.90;99.90
17703;DHT22;8970;48.104;-1.680;2022-08-19T01:54:44;19.90;99.90
17703;DHT22;8970;48.104;-1.680;2022-08-19T01:55:21;19.90;99.90
17703;DHT22;8970;48.104;-1.680;2022-08-19T01:56:00;19.90;99.90
17703;DHT22;8970;48.104;-1.680;2022-08-19T01:56:37;19.90;99.90
17703;DHT22;8970;48.104;-1.680;2022-08-19T01:57:15;20.00;99.90
17703;DHT22;8970;48.104;-1.680;2022-08-19T01:58:41;20.00;99.90
17703;DHT22;8970;48.104;-1.680;2022-08-19T01:59:22;20.00;99.90
17703;DHT22;8970;48.104;-1.680;2022-08-19T02:00:00;19.90;99.90
17703;DHT22;8970;48.104;-1.680;2022-08-19T02:00:37;19.90;99.90
17703;DHT22;8970;48.104;-1.680;2022-08-19T02:01:14;19.90;99.90
17703;DHT22;8970;48.104;-1.680;2022-08-19T02:01:51;19.90;99.90
17703;DHT22;8970;48.104;-1.680;2022-08-19T02:02:28;20.00;99.90
17703;DHT22;8970;48.104;-1.680;2022-08-19T02:03:04;20.00;99.90
17703;DHT22;8970;48.104;-1.680;2022-08-19T02:03:43;20.00;99.90
17703;DHT22;8970;48.104;-1.680;2022-08-19T02:04:21;20.00;99.90
17703;DHT22;8970;48.104;-1.680;2022-08-19T02:04:58;20.00;99.90
17703;DHT22;8970;48.104;-1.680;2022-08-19T02:05:37;20.00;99.90
17703;DHT22;8970;48.104;-1.680;2022-08-19T02:06:15;20.00;99.90
17703;DHT22;8970;48.104;-1.680;2022-08-19T02:06:52;20.00;99.90
17703;DHT22;8970;48.104;-1.680;2022-08-19T02:07:28;20.00;99.90
17703;DHT22;8970;48.104;-1.680;2022-08-19T02:08:53;20.10;99.90
17703;DHT22;8970;48.104;-1.680;2022-08-19T02:10:17;20.10;99.90
17703;DHT22;8970;48.104;-1.680;2022-08-19T02:10:53;20.20;99.90
17703;DHT22;8970;48.104;-1.680;2022-08-19T02:11:31;20.20;99.90
17703;DHT22;8970;48.104;-1.680;2022-08-19T02:12:08;20.20;99.90
17703;DHT22;8970;48.104;-1.680;2022-08-19T02:12:46;20.20;99.90
17703;DHT22;8970;48.104;-1.680;2022-08-19T02:13:24;20.20;99.90
17703;DHT22;8970;48.104;-1.680;2022-08-19T02:14:05;20.20;99.90
17703;DHT22;8970;48.104;-1.680;2022-08-19T02:14:42;20.20;99.90
17703;DHT22;8970;48.104;-1.680;2022-08-19T02:15:20;20.10;99.90
17703;DHT22;8970;48.104;-1.680;2022-08-19T02:15:57;20.20;99.90
17703;DHT22;8970;48.104;-1.680;2022-08-19T02:16:35;20.20;99.90
17703;DHT22;8970;48.104;-1.680;2022-08-19T02:17:12;20.20;99.90
17703;DHT22;8970;48.104;-1.680;2022-08-19T02:17:49;20.20;99.90
17703;DHT22;8970;48.104;-1.680;2022-08-19T02:18:27;20.20;99.90
17703;DHT22;8970;48.104;-1.680;2022-08-19T02:19:04;20.20;99.90
17703;DHT22;8970;48.104;-1.680;2022-08-19T02:19:40;20.20;99.90
17703;DHT22;8970;48.104;-1.680;2022-08-19T02:20:18;20.20;99.90
17703;DHT22;8970;48.104;-1.680;2022-08-19T02:20:54;20.20;99.90
17703;DHT22;8970;48.104;-1.680;2022-08-19T02:21:31;20.10;99.90
17703;DHT22;8970;48.104;-1.680;2022-08-19T02:22:08;20.20;99.90
17703;DHT22;8970;48.104;-1.680;2022-08-19T02:22:45;20.10;99.90
17703;DHT22;8970;48.104;-1.680;2022-08-19T02:23:22;20.10;99.90
17703;DHT22;8970;48.104;-1.680;2022-08-19T02:23:59;20.10;99.90
17703;DHT22;8970;48.104;-1.680;2022-08-19T02:24:36;20.00;99.90
17703;DHT22;8970;48.104;-1.680;2022-08-19T02:25:14;20.00;99.90
17703;DHT22;8970;48.104;-1.680;2022-08-19T02:25:52;19.90;99.90
17703;DHT22;8970;48.104;-1.680;2022-08-19T02:26:29;19.90;99.90
17703;DHT22;8970;48.104;-1.680;2022-08-19T02:27:06;19.90;99.90
17703;DHT22;8970;48.104;-1.680;2022-08-19T02:27:43;19.90;99.90
17703;DHT22;8970;48.104;-1.680;2022-08-19T02:28:20;19.90;99.90
17703;DHT22;8970;48.104;-1.680;2022-08-19T02:28:57;20.00;99.90
17703;DHT22;8970;48.104;-1.680;2022-08-19T02:30:18;20.00;99.90
17703;DHT22;8970;48.104;-1.680;2022-08-19T02:30:55;19.90;99.90
17703;DHT22;8970;48.104;-1.680;2022-08-19T02:31:31;19.90;99.90
17703;DHT22;8970;48.104;-1.680;2022-08-19T02:32:08;19.90;99.90
17703;DHT22;8970;48.104;-1.680;2022-08-19T02:32:45;19.90;99.90
17703;DHT22;8970;48.104;-1.680;2022-08-19T02:33:22;19.80;99.90
17703;DHT22;8970;48.104;-1.680;2022-08-19T02:33:59;19.90;99.90
17703;DHT22;8970;48.104;-1.680;2022-08-19T02:34:35;19.90;99.90
17703;DHT22;8970;48.104;-1.680;2022-08-19T02:35:13;19.90;99.90
17703;DHT22;8970;48.104;-1.680;2022-08-19T02:35:50;19.90;99.90
17703;DHT22;8970;48.104;-1.680;2022-08-19T02:36:27;19.90;99.90
17703;DHT22;8970;48.104;-1.680;2022-08-19T02:37:06;19.90;99.90
17703;DHT22;8970;48.104;-1.680;2022-08-19T02:37:45;20.00;99.90
17703;DHT22;8970;48.104;-1.680;2022-08-19T02:38:40;20.00;99.90
17703;DHT22;8970;48.104;-1.680;2022-08-19T02:39:18;20.00;99.90
17703;DHT22;8970;48.104;-1.680;2022-08-19T02:39:55;20.00;99.90
17703;DHT22;8970;48.104;-1.680;2022-08-19T02:40:32;20.00;99.90
17703;DHT22;8970;48.104;-1.680;2022-08-19T02:41:13;20.00;99.90
17703;DHT22;8970;48.104;-1.680;2022-08-19T02:42:35;19.90;99.90
17703;DHT22;8970;48.104;-1.680;2022-08-19T02:43:12;19.90;99.90
17703;DHT22;8970;48.104;-1.680;2022-08-19T02:43:49;19.90;99.90
17703;DHT22;8970;48.104;-1.680;2022-08-19T02:44:25;19.90;99.90
17703;DHT22;8970;48.104;-1.680;2022-08-19T02:45:04;19.80;99.90
17703;DHT22;8970;48.104;-1.680;2022-08-19T02:45:41;19.80;99.90
17703;DHT22;8970;48.104;-1.680;2022-08-19T02:46:19;19.80;99.90
17703;DHT22;8970;48.104;-1.680;2022-08-19T02:47:41;19.80;99.90
17703;DHT22;8970;48.104;-1.680;2022-08-19T02:48:18;19.70;99.90
17703;DHT22;8970;48.104;-1.680;2022-08-19T02:49:41;19.70;99.90
17703;DHT22;8970;48.104;-1.680;2022-08-19T02:50:18;19.70;99.90
17703;DHT22;8970;48.104;-1.680;2022-08-19T02:50:55;19.70;99.90
17703;DHT22;8970;48.104;-1.680;2022-08-19T02:51:34;19.70;99.90
17703;DHT22;8970;48.104;-1.680;2022-08-19T02:52:11;19.70;99.90
17703;DHT22;8970;48.104;-1.680;2022-08-19T02:52:47;19.70;99.90
17703;DHT22;8970;48.104;-1.680;2022-08-19T02:53:26;19.60;99.90
17703;DHT22;8970;48.104;-1.680;2022-08-19T02:54:04;19.70;99.90
17703;DHT22;8970;48.104;-1.680;2022-08-19T02:54:41;19.70;99.90
17703;DHT22;8970;48.104;-1.680;2022-08-19T02:55:19;19.70;99.90
17703;DHT22;8970;48.104;-1.680;2022-08-19T02:55:56;19.70;99.90
17703;DHT22;8970;48.104;-1.680;2022-08-19T02:56:35;19.70;99.90
17703;DHT22;8970;48.104;-1.680;2022-08-19T02:57:12;19.70;99.90
17703;DHT22;8970;48.104;-1.680;2022-08-19T02:57:49;19.70;99.90
17703;DHT22;8970;48.104;-1.680;2022-08-19T02:58:27;19.80;99.90
17703;DHT22;8970;48.104;-1.680;2022-08-19T02:59:04;19.80;99.90
17703;DHT22;8970;48.104;-1.680;2022-08-19T02:59:43;19.80;99.90
17703;DHT22;8970;48.104;-1.680;2022-08-19T03:00:20;19.80;99.90
17703;DHT22;8970;48.104;-1.680;2022-08-19T03:00:57;19.80;99.90
17703;DHT22;8970;48.104;-1.680;2022-08-19T03:01:34;19.80;99.90
17703;DHT22;8970;48.104;-1.680;2022-08-19T03:02:10;19.80;99.90
17703;DHT22;8970;48.104;-1.680;2022-08-19T03:02:47;19.90;99.90
17703;DHT22;8970;48.104;-1.680;2022-08-19T03:03:24;19.90;99.90
17703;DHT22;8970;48.104;-1.680;2022-08-19T03:04:48;19.90;99.90
17703;DHT22;8970;48.104;-1.680;2022-08-19T03:05:26;19.90;99.90
17703;DHT22;8970;48.104;-1.680;2022-08-19T03:06:11;19.90;99.90
17703;DHT22;8970;48.104;-1.680;2022-08-19T03:06:48;19.90;99.90
17703;DHT22;8970;48.104;-1.680;2022-08-19T03:07:25;19.90;99.90
17703;DHT22;8970;48.104;-1.680;2022-08-19T03:08:02;20.00;99.90
17703;DHT22;8970;48.104;-1.680;2022-08-19T03:08:43;20.00;99.90
17703;DHT22;8970;48.104;-1.680;2022-08-19T03:09:21;20.00;99.90
17703;DHT22;8970;48.104;-1.680;2022-08-19T03:10:00;20.00;99.90
17703;DHT22;8970;48.104;-1.680;2022-08-19T03:10:43;20.00;99.90
17703;DHT22;8970;48.104;-1.680;2022-08-19T03:11:23;20.00;99.90
17703;DHT22;8970;48.104;-1.680;2022-08-19T03:12:00;19.90;99.90
17703;DHT22;8970;48.104;-1.680;2022-08-19T03:12:38;19.90;99.90
17703;DHT22;8970;48.104;-1.680;2022-08-19T03:13:17;19.90;99.90
17703;DHT22;8970;48.104;-1.680;2022-08-19T03:13:54;19.80;99.90
17703;DHT22;8970;48.104;-1.680;2022-08-19T03:14:32;19.80;99.90
17703;DHT22;8970;48.104;-1.680;2022-08-19T03:15:10;19.80;99.90
17703;DHT22;8970;48.104;-1.680;2022-08-19T03:15:48;19.90;99.90
17703;DHT22;8970;48.104;-1.680;2022-08-19T03:16:26;19.90;99.90
17703;DHT22;8970;48.104;-1.680;2022-08-19T03:17:06;19.90;99.90
17703;DHT22;8970;48.104;-1.680;2022-08-19T03:17:44;19.90;99.90
17703;DHT22;8970;48.104;-1.680;2022-08-19T03:18:20;19.90;99.90
17703;DHT22;8970;48.104;-1.680;2022-08-19T03:18:58;19.90;99.90
17703;DHT22;8970;48.104;-1.680;2022-08-19T03:19:35;19.90;99.90
17703;DHT22;8970;48.104;-1.680;2022-08-19T03:20:14;19.90;99.90
17703;DHT22;8970;48.104;-1.680;2022-08-19T03:20:53;19.90;99.90
17703;DHT22;8970;48.104;-1.680;2022-08-19T03:21:32;19.90;99.90
17703;DHT22;8970;48.104;-1.680;2022-08-19T03:22:08;19.90;99.90
17703;DHT22;8970;48.104;-1.680;2022-08-19T03:22:45;19.90;99.90
17703;DHT22;8970;48.104;-1.680;2022-08-19T03:23:22;19.90;99.90
17703;DHT22;8970;48.104;-1.680;2022-08-19T03:24:02;19.90;99.90
17703;DHT22;8970;48.104;-1.680;2022-08-19T03:24:40;19.90;99.90
17703;DHT22;8970;48.104;-1.680;2022-08-19T03:25:19;19.80;99.90
17703;DHT22;8970;48.104;-1.680;2022-08-19T03:26:41;19.80;99.90
17703;DHT22;8970;48.104;-1.680;2022-08-19T03:27:18;19.80;99.90
17703;DHT22;8970;48.104;-1.680;2022-08-19T03:27:55;19.80;99.90
17703;DHT22;8970;48.104;-1.680;2022-08-19T03:28:33;19.90;99.90
17703;DHT22;8970;48.104;-1.680;2022-08-19T03:29:55;20.00;99.90
17703;DHT22;8970;48.104;-1.680;2022-08-19T03:30:32;20.00;99.90
17703;DHT22;8970;48.104;-1.680;2022-08-19T03:31:55;20.00;99.90
17703;DHT22;8970;48.104;-1.680;2022-08-19T03:32:32;19.90;99.90
17703;DHT22;8970;48.104;-1.680;2022-08-19T03:33:09;20.00;99.90
17703;DHT22;8970;48.104;-1.680;2022-08-19T03:33:46;20.00;99.90
17703;DHT22;8970;48.104;-1.680;2022-08-19T03:34:26;20.00;99.90
17703;DHT22;8970;48.104;-1.680;2022-08-19T03:35:03;20.00;99.90
17703;DHT22;8970;48.104;-1.680;2022-08-19T03:35:40;20.00;99.90
17703;DHT22;8970;48.104;-1.680;2022-08-19T03:36:19;19.90;99.90
17703;DHT22;8970;48.104;-1.680;2022-08-19T03:36:58;19.90;99.90
17703;DHT22;8970;48.104;-1.680;2022-08-19T03:37:35;19.90;99.90
17703;DHT22;8970;48.104;-1.680;2022-08-19T03:38:11;19.90;99.90
17703;DHT22;8970;48.104;-1.680;2022-08-19T03:39:38;19.90;99.90
17703;DHT22;8970;48.104;-1.680;2022-08-19T03:40:17;19.90;99.90
17703;DHT22;8970;48.104;-1.680;2022-08-19T03:40:54;19.80;99.90
17703;DHT22;8970;48.104;-1.680;2022-08-19T03:41:32;19.80;99.90
17703;DHT22;8970;48.104;-1.680;2022-08-19T03:42:11;19.80;99.90
17703;DHT22;8970;48.104;-1.680;2022-08-19T03:42:47;19.80;99.90
17703;DHT22;8970;48.104;-1.680;2022-08-19T03:43:25;19.80;99.90
17703;DHT22;8970;48.104;-1.680;2022-08-19T03:44:02;19.90;99.90
17703;DHT22;8970;48.104;-1.680;2022-08-19T03:44:40;19.80;99.90
17703;DHT22;8970;48.104;-1.680;2022-08-19T03:45:18;19.80;99.90
17703;DHT22;8970;48.104;-1.680;2022-08-19T03:46:02;19.80;99.90
17703;DHT22;8970;48.104;-1.680;2022-08-19T03:47:22;19.80;99.90
17703;DHT22;8970;48.104;-1.680;2022-08-19T03:47:59;19.80;99.90
17703;DHT22;8970;48.104;-1.680;2022-08-19T03:48:36;19.90;99.90
17703;DHT22;8970;48.104;-1.680;2022-08-19T03:49:59;19.90;99.90
17703;DHT22;8970;48.104;-1.680;2022-08-19T03:50:38;19.90;99.90
17703;DHT22;8970;48.104;-1.680;2022-08-19T03:51:21;19.90;99.90
17703;DHT22;8970;48.104;-1.680;2022-08-19T03:51:59;20.00;99.90
17703;DHT22;8970;48.104;-1.680;2022-08-19T03:52:36;20.00;99.90
17703;DHT22;8970;48.104;-1.680;2022-08-19T03:53:14;20.00;99.90
17703;DHT22;8970;48.104;-1.680;2022-08-19T03:53:52;20.00;99.90
17703;DHT22;8970;48.104;-1.680;2022-08-19T03:54:29;20.00;99.90
17703;DHT22;8970;48.104;-1.680;2022-08-19T03:55:08;19.90;99.90
17703;DHT22;8970;48.104;-1.680;2022-08-19T03:55:44;19.90;99.90
17703;DHT22;8970;48.104;-1.680;2022-08-19T03:56:22;19.90;99.90
17703;DHT22;8970;48.104;-1.680;2022-08-19T03:57:00;19.90;99.90
17703;DHT22;8970;48.104;-1.680;2022-08-19T03:57:37;19.90;99.90
17703;DHT22;8970;48.104;-1.680;2022-08-19T03:58:14;20.00;99.90
17703;DHT22;8970;48.104;-1.680;2022-08-19T03:58:51;20.00;99.90
17703;DHT22;8970;48.104;-1.680;2022-08-19T03:59:30;20.00;99.90
17703;DHT22;8970;48.104;-1.680;2022-08-19T04:00:10;20.00;99.90
17703;DHT22;8970;48.104;-1.680;2022-08-19T04:00:49;20.00;99.90
17703;DHT22;8970;48.104;-1.680;2022-08-19T04:01:28;20.00;99.90
17703;DHT22;8970;48.104;-1.680;2022-08-19T04:02:08;20.00;99.90
17703;DHT22;8970;48.104;-1.680;2022-08-19T04:03:30;20.00;99.90
17703;DHT22;8970;48.104;-1.680;2022-08-19T04:04:07;19.90;99.90
17703;DHT22;8970;48.104;-1.680;2022-08-19T04:04:44;20.00;99.90
17703;DHT22;8970;48.104;-1.680;2022-08-19T04:05:21;20.00;99.90
17703;DHT22;8970;48.104;-1.680;2022-08-19T04:05:59;20.00;99.90
17703;DHT22;8970;48.104;-1.680;2022-08-19T04:06:38;20.00;99.90
17703;DHT22;8970;48.104;-1.680;2022-08-19T04:07:15;20.00;99.90
17703;DHT22;8970;48.104;-1.680;2022-08-19T04:07:53;20.00;99.90
17703;DHT22;8970;48.104;-1.680;2022-08-19T04:08:30;20.00;99.90
17703;DHT22;8970;48.104;-1.680;2022-08-19T04:09:09;20.00;99.90
17703;DHT22;8970;48.104;-1.680;2022-08-19T04:09:46;19.90;99.90
17703;DHT22;8970;48.104;-1.680;2022-08-19T04:10:23;19.90;99.90
17703;DHT22;8970;48.104;-1.680;2022-08-19T04:10:59;19.90;99.90
17703;DHT22;8970;48.104;-1.680;2022-08-19T04:11:39;20.00;99.90
17703;DHT22;8970;48.104;-1.680;2022-08-19T04:12:17;20.00;99.90
17703;DHT22;8970;48.104;-1.680;2022-08-19T04:12:55;20.00;99.90
17703;DHT22;8970;48.104;-1.680;2022-08-19T04:13:32;20.00;99.90
17703;DHT22;8970;48.104;-1.680;2022-08-19T04:14:10;20.00;99.90
17703;DHT22;8970;48.104;-1.680;2022-08-19T04:14:47;20.00;99.90
17703;DHT22;8970;48.104;-1.680;2022-08-19T04:15:25;20.00;99.90
17703;DHT22;8970;48.104;-1.680;2022-08-19T04:16:04;20.00;99.90
17703;DHT22;8970;48.104;-1.680;2022-08-19T04:16:41;20.00;99.90
17703;DHT22;8970;48.104;-1.680;2022-08-19T04:17:21;20.00;99.90
17703;DHT22;8970;48.104;-1.680;2022-08-19T04:17:58;20.10;99.90
17703;DHT22;8970;48.104;-1.680;2022-08-19T04:18:34;20.10;99.90
17703;DHT22;8970;48.104;-1.680;2022-08-19T04:19:12;20.00;99.90
17703;DHT22;8970;48.104;-1.680;2022-08-19T04:19:49;20.00;99.90
17703;DHT22;8970;48.104;-1.680;2022-08-19T04:20:26;20.00;99.90
17703;DHT22;8970;48.104;-1.680;2022-08-19T04:21:03;20.00;99.90
17703;DHT22;8970;48.104;-1.680;2022-08-19T04:21:42;20.00;99.90
17703;DHT22;8970;48.104;-1.680;2022-08-19T04:23:03;19.90;99.90
17703;DHT22;8970;48.104;-1.680;2022-08-19T04:23:40;19.90;99.90
17703;DHT22;8970;48.104;-1.680;2022-08-19T04:24:17;19.90;99.90
17703;DHT22;8970;48.104;-1.680;2022-08-19T04:24:55;19.90;99.90
17703;DHT22;8970;48.104;-1.680;2022-08-19T04:25:37;19.90;99.90
17703;DHT22;8970;48.104;-1.680;2022-08-19T04:26:15;19.90;99.90
17703;DHT22;8970;48.104;-1.680;2022-08-19T04:26:52;19.90;99.90
17703;DHT22;8970;48.104;-1.680;2022-08-19T04:28:13;20.00;99.90
17703;DHT22;8970;48.104;-1.680;2022-08-19T04:28:51;19.90;99.90
17703;DHT22;8970;48.104;-1.680;2022-08-19T04:29:28;19.90;99.90
17703;DHT22;8970;48.104;-1.680;2022-08-19T04:30:07;20.00;99.90
17703;DHT22;8970;48.104;-1.680;2022-08-19T04:30:48;20.00;99.90
17703;DHT22;8970;48.104;-1.680;2022-08-19T04:31:28;19.90;99.90
17703;DHT22;8970;48.104;-1.680;2022-08-19T04:32:05;19.90;99.90
17703;DHT22;8970;48.104;-1.680;2022-08-19T04:32:44;19.90;99.90